MMPR/PVR METAR and TAF weather

Enter ICAO airport designator
Station Type Date Time Source
MMPR METAR 2022/06/28 14:46 UTC NOAA

MMPR 281446Z 00000KT 15SM BKN130 27/25 A2996 RMK SLP142 52010 951 8/070 DSNT SC-W AND CCCS


Station Type Date Time Source
MMPR Decoded METAR 2022/06/28 14:46 UTC NOAA

Puerto Vallarta / Lic, Mexico (MMPR) 20-41N 105-15W
Jun 28, 2022 - 10:46 AM EDT / 2022.06.28 1446 UTC
Wind: Calm:0
Visibility: 15 mile(s):0
Sky conditions: mostly cloudy
Temperature: 80 F (27 C)
Dew Point: 77 F (25 C)
Relative Humidity: 88%
Pressure (altimeter): 29.96 in. Hg (1014 hPa)
Pressure tendency: 0.03 inches (1.0 hPa) higher than three hours ago
ob: MMPR 281446Z 00000KT 15SM BKN130 27/25 A2996 RMK SLP142 52010 951 8/070 DSNT SC-W AND CCCS
cycle: 15

Station Type Date Time Source
MMPR TAF 2022/06/28 12:54 UTC NOAA

TAF MMPR 281052Z 2812/2918 00000KT P6SM SCT025 SCT090 TX31/2819Z TN24/2812Z
TEMPO 2812/2814 6SM RA BKN020CB
FM281800 22010KT P6SM SCT020 BKN100 BKN250
TEMPO 2823/2903 6SM TSRA BKN020CB
FM290300 24005KT 6SM HZ SCT020 BKN100
TEMPO 2906/2910 6SM TSRA BKN020CB

Example: see airport list